Tiempo atmosférico en la estación meteorológica de Os De Balaguer, Lleida (515 m.)



Fecha
DESCASC
Temp. máxima en grados centígrados (hora)
DESCASC
Temp. mínima en grados centígrados (hora)
DESCASC
Temp. media en grados centígrados
DESCASC
Racha de viento máxima en m/sg (hora)
DESCASC
Velocidad máxima media en intervalos de 10 minutos(hora)
DESCASC
Precipitaciones diarias en mm
DESCASC
Precipitaciones de 00:00 a 06:00 en mm
DESCASC
Precipitaciones de 06:00 a 12:00 en mm
DESCASC
Precipitaciones de 12:00 a 18:00 en mm
DESCASC
Precipitaciones de 18:00 a 24:00 en mm
DESCASC
28-02-2021 13.1 (15:00) 5.8 (19:40) 9.5 6.67 (13:30) 4.17 (16:00) 0 0 0 0 0
27-02-2021 9.3 (16:30) 5.7 (20:20) 7.5 5 (14:00) 3.33 (21:10) 0.2 0 0.2 0 0
26-02-2021 10.8 (11:00) 4 (05:20) 7.4 5 (14:50) 3.33 (14:10) 0 0 0 0 0
25-02-2021 15.6 (15:00) 5.5 (00:00) 10.6 5.28 (00:30) 3.61 (00:40) 0 0 0 0 0
24-02-2021 16.5 (16:00) 6.1 (00:00) 11.3 7.78 (22:40) 3.89 (22:00) 0 0 0 0 0
23-02-2021 15.8 (15:30) 6.7 (00:00) 11.3 5.28 (14:40) 3.33 (23:59) 0 0 0 0 0
22-02-2021 13.4 (04:30) 6.9 (00:00) 10.1 16.67 (05:00) 10 (02:20) 9.6 0.4 5 4.2 0
21-02-2021 15.1 (12:10) 9.9 (00:00) 12.5 17.78 (15:10) 10.83 (15:10) 0 0 0 0 0
20-02-2021 18.6 (14:00) 4.7 (00:00) 11.7 10.83 (20:00) 6.94 (20:00) 0 0 0 0 0
19-02-2021 18.2 (16:10) 4.5 (00:00) 11.4 5.56 (08:00) 4.17 (08:00) 0 0 0 0 0
18-02-2021 18.4 (15:20) 6.1 (00:00) 12.2 6.11 (06:50) 4.72 (07:00) 0 0 0 0 0
17-02-2021 16.2 (15:10) 5.4 (00:00) 10.8 4.44 (15:40) 3.33 (08:30) 0 0 0 0 0
16-02-2021 14.6 (16:40) 6.7 (00:00) 10.7 6.39 (15:40) 5 (15:40) 0 0 0 0 0
15-02-2021 9.8 (14:20) 4 (00:00) 6.9 3.89 (19:40) 2.78 (02:50) 0 0 0 0 0
14-02-2021 7.3 (08:30) 3.9 (00:00) 5.6 8.33 (18:50) 5.28 (19:10) 0 0 0 0 0
13-02-2021 12.4 (15:20) 2.5 (00:00) 7.4 6.39 (00:30) 4.17 (03:40) 0 0 0 0 0
12-02-2021 11.3 (13:00) 5.6 (00:00) 8.5 5.56 (17:20) 3.61 (08:20) 0.4 0 0 0.4 0
11-02-2021 16 (16:00) 0.5 (00:00) 8.3 8.61 (17:00) 5 (14:10) 0 0 0 0 0
10-02-2021 13.5 (16:40) 4.4 (00:00) 9 11.67 (17:40) 5.83 (18:30) 1.8 0 1.8 0 0
09-02-2021 7.8 (10:10) 4.6 (00:00) 6.2 7.5 (03:10) 3.89 (03:10) 0.6 0 0 0.4 0.2
08-02-2021 11.2 (16:50) 4.5 (00:00) 7.8 9.17 (17:00) 3.89 (16:20) 0.4 0 0.4 0 0
07-02-2021 11.9 (15:30) 3.4 (00:00) 7.6 10 (17:00) 5.83 (15:00) 0.4 0.4 0 0 0
06-02-2021 16.4 (01:10) 6.6 (00:00) 11.5 11.94 (01:30) 6.39 (05:50) 0 0 0 0 0
05-02-2021 17.5 (14:00) 9 (00:00) 13.3 11.67 (12:10) 6.94 (12:10) 0 0 0 0 0
04-02-2021 17.9 (14:20) 7 (00:00) 12.4 8.61 (20:40) 5.83 (20:30) 0 0 0 0 0
03-02-2021 18.3 (15:20) 6.4 (00:00) 12.3 7.78 (16:20) 4.44 (12:50) 0 0 0 0 0
02-02-2021 17.7 (16:10) 4.4 (00:00) 11.1 10.83 (14:00) 5.83 (14:00) 0 0 0 0 0
01-02-2021 17.1 (13:40) 9.1 (00:00) 13.1 16.39 (16:40) 9.72 (15:20) 0 0 0 0 0
31-01-2021 14.9 (15:50) 5.6 (00:00) 10.2 14.17 (13:30) 7.22 (13:20) 0 0 0 0 0

Gráficas

Temp. máximas Temp. mínimas Temp. medias Precipitaciones Rachas de viento máximas Velocidades máximas media en intervalos de 10 minutos

Datos horarios

Fecha y hora oficial Temperatura (ºC) Velocidad del viento (km/h) Dirección del viento Racha (km/h) Dirección de racha Precipitación (mm) Presión (hPa) Tendencia (hPa) Humedad (%)
2021-03-01 23:00:00 9.2 5 Sudeste 15 Este 0 -- -- 81
2021-03-01 22:00:00 9.5 10 Este 18 Este 0 -- -- 80
2021-03-01 21:00:00 10 8 Nordeste 14 Este 0 -- -- 76
2021-03-01 20:00:00 10.3 0 Calma 6 Este 0 -- -- 72
2021-03-01 19:00:00 10.8 2 Norte 14 Este 0 -- -- 70
2021-03-01 18:00:00 11.8 4 Este 18 Sudeste 0 -- -- 66
2021-03-01 17:00:00 12.7 7 Sudeste 23 Sudeste 0 -- -- 63
2021-03-01 16:00:00 13.1 10 Sudeste 22 Este 0 -- -- 62
2021-03-01 15:00:00 13.1 9 Sur 23 Sur 0 -- -- 62
2021-03-01 14:00:00 12.8 13 Sur 25 Sudeste 0 -- -- 63
2021-03-01 13:00:00 12.2 11 Sudeste 26 Sudeste 0 -- -- 63
2021-03-01 12:00:00 11.5 12 Sudeste 27 Este 0 -- -- 63
2021-03-01 11:00:00 11.1 12 Este 28 Nordeste 0 -- -- 68
2021-03-01 10:00:00 10.1 15 Este 27 Nordeste 0 -- -- 70
2021-03-01 09:00:00 7.7 12 Nordeste 21 Nordeste 0 -- -- 80
2021-03-01 08:00:00 6.5 9 Nordeste 17 Nordeste 0 -- -- 82
2021-03-01 07:00:00 7.5 13 Nordeste 19 Nordeste 0 -- -- 79
2021-03-01 06:00:00 7.9 9 Nordeste 19 Nordeste 0 -- -- 79
2021-03-01 05:00:00 7.4 7 Nordeste 14 Nordeste 0 -- -- 82
2021-03-01 04:00:00 6.2 10 Nordeste 19 Nordeste 0 -- -- 87
2021-03-01 03:00:00 6.7 10 Nordeste 18 Nordeste 0 -- -- 87
2021-03-01 02:00:00 7.3 12 Nordeste 23 Nordeste 0 -- -- 85
2021-03-01 01:00:00 6 6 Nordeste 25 Este 0 -- -- 90
2021-03-01 00:00:00 6.7 6 Nordeste 15 Este 0 -- -- 91
2021-02-28 23:00:00 8.3 7 Este 22 Este 0 -- -- 87
2021-02-28 22:00:00 8.2 13 Este 22 Nordeste 0 -- -- 90
2021-02-28 21:00:00 7.4 6 Sudeste 14 Este 0 -- -- 89
2021-02-28 20:00:00 6.3 5 Este 9 Nordeste 0 -- -- 93
2021-02-28 19:00:00 7.8 4 Nordeste 9 Este 0 -- -- 85
2021-02-28 18:00:00 11.2 4 Nordeste 13 Nordeste 0 -- -- 74
2021-02-28 17:00:00 11.5 7 Sudeste 21 Este 0 -- -- 71
2021-02-28 16:00:00 10.8 15 Este 23 Este 0 -- -- 75
2021-02-28 15:00:00 13.1 6 Este 17 Nordeste 0 -- -- 66
2021-02-28 14:00:00 12 6 Sudeste 24 Este 0 -- -- 71
2021-02-28 13:00:00 11.5 10 Este 19 Nordeste 0 -- -- 80
2021-02-28 12:00:00 9.6 9 Nordeste 19 Este 0 -- -- 82
2021-02-28 11:00:00 10.3 6 Este 19 Este 0 -- -- 77
2021-02-28 10:00:00 9.4 13 Este 19 Este 0 -- -- 80
2021-02-28 09:00:00 8.5 5 Nordeste 12 Nordeste 0 -- -- 85
2021-02-28 08:00:00 7.2 8 Nordeste 10 Este 0 -- -- 93
2021-02-28 07:00:00 7.9 6 Nordeste 12 Nordeste 0 -- -- 89
2021-02-28 06:00:00 7.4 10 Nordeste 14 Nordeste 0 -- -- 92
2021-02-28 05:00:00 7.5 9 Nordeste 12 Nordeste 0 -- -- 92
2021-02-28 04:00:00 7.6 10 Nordeste 14 Nordeste 0 -- -- 91
2021-02-28 03:00:00 7.7 11 Nordeste 14 Nordeste 0 -- -- 91
2021-02-28 02:00:00 8.6 6 Nordeste 13 Nordeste 0 -- -- 88
2021-02-28 01:00:00 8.2 8 Nordeste 14 Nordeste 0 -- -- 89
2021-02-28 00:00:00 8.1 7 Nordeste 13 Nordeste 0 -- -- 90
2021-02-27 23:00:00 6.4 6 Nordeste 15 Nordeste 0 -- -- 97
2021-02-27 22:00:00 6.3 9 Nordeste 16 Nordeste 0 -- -- 94
2021-02-27 21:00:00 6.2 10 Nordeste 14 Nordeste 0 -- -- 97
2021-02-27 20:00:00 6.4 6 Nordeste 10 Este 0 -- -- 92
2021-02-27 19:00:00 7.4 5 Nordeste 14 Este 0 -- -- 91
2021-02-27 18:00:00 9.2 3 Nordeste 11 Sur 0 -- -- 85
2021-02-27 17:00:00 9.2 8 Sudoeste 15 Sudoeste 0 -- -- 85
2021-02-27 16:00:00 8.9 9 Sudoeste 15 Sudoeste 0 -- -- 88
2021-02-27 15:00:00 8.5 8 Sudoeste 17 Sudoeste 0 -- -- 92
2021-02-27 14:00:00 8.2 9 Sudoeste 18 Sudoeste 0 -- -- 94
2021-02-27 13:00:00 8 6 Oeste 17 Sudoeste 0 -- -- 97
2021-02-27 12:00:00 8 9 Sudoeste 15 Oeste 0 -- -- 98
2021-02-27 11:00:00 7.3 5 Este 9 Este 0 -- -- 99
2021-02-27 10:00:00 7 5 Este 11 Nordeste 0 -- -- 100
2021-02-27 09:00:00 6.6 6 Nordeste 10 Noroeste 0.2 -- -- 100
2021-02-27 08:00:00 6.7 3 Norte 9 Norte 0 -- -- 100
2021-02-27 07:00:00 7 3 Noroeste 8 Oeste 0 -- -- 100
2021-02-27 06:00:00 7.2 5 Noroeste 9 Noroeste 0 -- -- 100
2021-02-27 05:00:00 7.5 2 Sudoeste 8 Oeste 0 -- -- 100
2021-02-27 04:00:00 7.6 3 Oeste 8 Norte 0 -- -- 100
2021-02-27 03:00:00 7.8 4 Noroeste 7 Norte 0 -- -- 99
2021-02-27 02:00:00 8.1 0 Calma 6 Oeste 0 -- -- 99
2021-02-27 01:00:00 8.3 0 Calma 5 Este 0 -- -- 99
2021-02-27 00:00:00 8.4 2 Sudoeste 6 Sudoeste 0 -- -- 98
2021-02-26 23:00:00 8.5 3 Sudoeste 5 Sudoeste 0 -- -- 98
2021-02-26 22:00:00 8.7 2 Nordeste 6 Nordeste 0 -- -- 97
2021-02-26 21:00:00 8.9 4 Sudoeste 6 Sudoeste 0 -- -- 96
2021-02-26 20:00:00 9.1 0 Calma 6 Sudoeste 0 -- -- 95
2021-02-26 19:00:00 9.2 4 Sudoeste 5 Sudoeste 0 -- -- 94
2021-02-26 18:00:00 9.4 2 Sur 9 Sudoeste 0 -- -- 93
2021-02-26 17:00:00 9.6 7 Sudoeste 12 Sudoeste 0 -- -- 92
2021-02-26 16:00:00 9.8 8 Sudoeste 15 Sudoeste 0 -- -- 91
2021-02-26 15:00:00 9.5 10 Sudoeste 18 Sudoeste 0 -- -- 92
2021-02-26 14:00:00 9.1 11 Sudoeste 17 Sudoeste 0 -- -- 93
2021-02-26 13:00:00 9.5 7 Sur 14 Sudoeste 0 -- -- 92
2021-02-26 12:00:00 9.9 8 Sur 15 Sudoeste 0 -- -- 89
2021-02-26 11:00:00 10.8 10 Sudoeste 15 Sudoeste 0 -- -- 84
2021-02-26 10:00:00 9 4 Sur 8 Sur 0 -- -- 90
2021-02-26 09:00:00 6 0 Calma 15 Nordeste 0 -- -- 94
2021-02-26 08:00:00 4.9 9 Nordeste 14 Nordeste 0 -- -- 93
2021-02-26 07:00:00 4.9 9 Nordeste 14 Nordeste 0 -- -- 95
2021-02-26 06:00:00 4.3 8 Nordeste 12 Este 0 -- -- 95
2021-02-26 05:00:00 4.8 6 Nordeste 11 Nordeste 0 -- -- 95
2021-02-26 04:00:00 4.7 9 Nordeste 13 Este 0 -- -- 96
2021-02-26 03:00:00 6.2 8 Nordeste 16 Nordeste 0 -- -- 95
2021-02-26 02:00:00 6.7 8 Nordeste 13 Norte 0 -- -- 93
2021-02-26 01:00:00 5.6 9 Nordeste 14 Este 0 -- -- 95
2021-02-26 00:00:00 5.7 8 Nordeste 12 Este 0 -- -- 95
2021-02-25 23:00:00 6 6 Nordeste 10 Este 0 -- -- 95
2021-02-25 22:00:00 6.3 5 Este 12 Este 0 -- -- 91
2021-02-25 21:00:00 6.8 6 Nordeste 11 Nordeste 0 -- -- 91
2021-02-25 20:00:00 7.7 8 Nordeste 10 Este 0 -- -- 86
2021-02-25 19:00:00 10.2 5 Nordeste 8 Oeste 0 -- -- 79
2021-02-25 18:00:00 13.9 6 Sudoeste 12 Sudoeste 0 -- -- 66
2021-02-25 17:00:00 15.2 6 Sudeste 13 Sur 0 -- -- 61
2021-02-25 16:00:00 14.5 6 Sur 15 Sudeste 0 -- -- 62
2021-02-25 15:00:00 15.6 6 Sur 17 Sur 0 -- -- 57
2021-02-25 14:00:00 14.9 7 Sudoeste 18 Sudoeste 0 -- -- 63
2021-02-25 13:00:00 14.2 8 Sudoeste 18 Sur 0 -- -- 61
2021-02-25 12:00:00 13.4 7 Sur 15 Este 0 -- -- 65
2021-02-25 11:00:00 12.1 8 Este 16 Este 0 -- -- 69
2021-02-25 10:00:00 10.2 6 Nordeste 16 Este 0 -- -- 77
2021-02-25 09:00:00 7.9 8 Este 12 Nordeste 0 -- -- 86
2021-02-25 08:00:00 7.4 6 Nordeste 10 Este 0 -- -- 86
2021-02-25 07:00:00 7.6 6 Nordeste 12 Nordeste 0 -- -- 86
2021-02-25 06:00:00 7.8 4 Nordeste 15 Este 0 -- -- 85
2021-02-25 05:00:00 7.8 4 Nordeste 12 Norte 0 -- -- 86
2021-02-25 04:00:00 7.6 7 Nordeste 13 Nordeste 0 -- -- 89
2021-02-25 03:00:00 6.9 3 Nordeste 10 Nordeste 0 -- -- 91
2021-02-25 02:00:00 7.5 8 Nordeste 19 Este 0 -- -- 86
2021-02-25 01:00:00 7.7 7 Nordeste 19 Este 0 -- -- 81
2021-02-25 00:00:00 8.6 10 Nordeste 21 Este 0 -- -- 76
2021-02-24 23:00:00 9.4 11 Este 28 Este 0 -- -- 74
2021-02-24 22:00:00 10.3 14 Este 21 Este 0 -- -- 71
2021-02-24 21:00:00 8.9 4 Nordeste 19 Sudeste 0 -- -- 80
2021-02-24 20:00:00 11.3 7 Sudeste 21 Sudeste 0 -- -- 72
2021-02-24 19:00:00 12.4 4 Nordeste 14 Este 0 -- -- 75
2021-02-24 18:00:00 15.2 5 Nordeste 21 Este 0 -- -- 71
2021-02-24 17:00:00 16.3 6 Sudeste 23 Sudeste 0 -- -- 67
2021-02-24 16:00:00 16.5 7 Este 20 Sudeste 0 -- -- 65
2021-02-24 15:00:00 15.8 10 Este 21 Nordeste 0 -- -- 68
2021-02-24 14:00:00 15 8 Este 20 Este 0 -- -- 73
2021-02-24 13:00:00 13.4 9 Sudeste 16 Este 0 -- -- 79
2021-02-24 12:00:00 12 5 Sudeste 12 Este 0 -- -- 83
2021-02-24 11:00:00 9.5 5 Este 13 Nordeste 0 -- -- 95
2021-02-24 10:00:00 8.5 5 Nordeste 12 Nordeste 0 -- -- 100
2021-02-24 09:00:00 7.2 6 Norte 12 Nordeste 0 -- -- 100
2021-02-24 08:00:00 6.7 7 Nordeste 13 Norte 0 -- -- 99
2021-02-24 07:00:00 7.8 7 Nordeste 12 Norte 0 -- -- 99
2021-02-24 06:00:00 8.4 5 Nordeste 9 Nordeste 0 -- -- 99
2021-02-24 05:00:00 7.2 2 Norte 7 Norte 0 -- -- 99
2021-02-24 04:00:00 6.3 4 Nordeste 13 Nordeste 0 -- -- 96
2021-02-24 03:00:00 7.3 9 Nordeste 15 Nordeste 0 -- -- 94
2021-02-24 02:00:00 8.3 12 Nordeste 15 Este 0 -- -- 96
2021-02-24 01:00:00 8.2 10 Nordeste 14 Nordeste 0 -- -- 95
2021-02-24 00:00:00 8.3 12 Nordeste 15 Nordeste 0 -- -- 97
2021-02-23 23:00:00 7.8 6 Nordeste 13 Este 0 -- -- 95
2021-02-23 22:00:00 7.7 6 Nordeste 12 Este 0 -- -- 93
2021-02-23 21:00:00 8.8 7 Nordeste 12 Este 0 -- -- 91
2021-02-23 20:00:00 9.3 7 Nordeste 12 Nordeste 0 -- -- 89
2021-02-23 19:00:00 10.9 6 Nordeste 8 Nordeste 0 -- -- 85
2021-02-23 18:00:00 15 3 Este 10 Nordeste 0 -- -- 68
2021-02-23 17:00:00 15.6 5 Norte 14 Este 0 -- -- 66
2021-02-23 16:00:00 15.7 6 Este 17 Este 0 -- -- 65
2021-02-23 15:00:00 15.4 6 Este 19 Sudeste 0 -- -- 70
2021-02-23 14:00:00 14.9 7 Sur 18 Sudeste 0 -- -- 82
2021-02-23 13:00:00 12.7 8 Este 18 Este 0 -- -- 100
2021-02-23 12:00:00 11.2 2 Norte 8 Sudeste 0 -- -- 100
2021-02-23 11:00:00 9.3 0 Calma 8 Sudoeste 0 -- -- 100
2021-02-23 10:00:00 8.5 4 Sudoeste 8 Sudoeste 0 -- -- 100
2021-02-23 09:00:00 7.4 0 Calma 4 Sudoeste 0 -- -- 100
2021-02-23 08:00:00 6.8 0 Calma 3 Sudoeste 0 -- -- 100
2021-02-23 07:00:00 6.7 0 Calma 9 Oeste 0 -- -- 100
2021-02-23 06:00:00 7.2 6 Oeste 12 Oeste 0 -- -- 100
2021-02-23 05:00:00 7.4 3 Nordeste 6 Nordeste 0 -- -- 100
2021-02-23 04:00:00 7.2 0 Calma 5 Sudoeste 0 -- -- 100
2021-02-23 03:00:00 7.2 4 Nordeste 9 Este 0 -- -- 100
2021-02-23 02:00:00 7.4 3 Este 8 Nordeste 0 -- -- 100
2021-02-23 01:00:00 7.1 4 Nordeste 10 Este 0 -- -- 100
2021-02-23 00:00:00 7 4 Sudeste 7 Sur 0 -- -- 100
2021-02-22 23:00:00 7.1 3 Sudeste 13 Sudoeste 0 -- -- 100
2021-02-22 22:00:00 7.1 7 Sudoeste 11 Sudoeste 0 -- -- 100
2021-02-22 21:00:00 7.3 7 Sudoeste 9 Sudoeste 0 -- -- 100
2021-02-22 20:00:00 7 5 Sudoeste 12 Sudoeste 0 -- -- 100
2021-02-22 19:00:00 7.6 5 Sudoeste 8 Sudoeste 0 -- -- 100
2021-02-22 18:00:00 8.1 3 Nordeste 11 Sudoeste 0 -- -- 100
2021-02-22 17:00:00 8.6 6 Sudoeste 13 Sudoeste 0.4 -- -- 100
2021-02-22 16:00:00 8.3 5 Sudoeste 11 Sur 1.2 -- -- 100
2021-02-22 15:00:00 8.6 2 Sudeste 6 Sudoeste 0.4 -- -- 100
2021-02-22 14:00:00 8.2 4 Sudoeste 15 Sudoeste 0.8 -- -- 99
2021-02-22 13:00:00 8.3 10 Sudoeste 24 Sudoeste 1.4 -- -- 99
2021-02-22 12:00:00 10.3 13 Este 30 Este 4.2 -- -- 93
2021-02-22 11:00:00 10.8 16 Nordeste 41 Este 0.6 -- -- 85
2021-02-22 10:00:00 11.7 22 Nordeste 52 Este 0 -- -- 75
2021-02-22 09:00:00 11.8 23 Este 51 Este 0 -- -- 78
2021-02-22 08:00:00 11.6 24 Este 40 Este 0.2 -- -- 80
2021-02-22 07:00:00 12.2 23 Este 53 Este 0 -- -- 77
2021-02-22 06:00:00 12 21 Nordeste 58 Este 0.4 -- -- 80
2021-02-22 05:00:00 12.8 32 Este 60 Este 0 -- -- 76
2021-02-22 04:00:00 13.1 28 Este 53 Este 0 -- -- 71
2021-02-22 03:00:00 12.8 29 Este 58 Este 0 -- -- 72
2021-02-22 02:00:00 12.9 27 Este 50 Este 0 -- -- 70
2021-02-22 01:00:00 13.1 33 Este 58 Este 0 -- -- 67
2021-02-22 00:00:00 12.9 27 Este 53 Este 0 -- -- 66
2021-02-21 23:00:00 12.8 35 Este 59 Este 0 -- -- 65
2021-02-21 22:00:00 12.8 36 Este 58 Este 0 -- -- 63
2021-02-21 21:00:00 12.9 31 Este 54 Este 0 -- -- 61
2021-02-21 20:00:00 12.5 36 Este 58 Este 0 -- -- 62
2021-02-21 19:00:00 12.3 25 Este 60 Este 0 -- -- 62
2021-02-21 18:00:00 12.6 35 Este 55 Este 0 -- -- 62
2021-02-21 17:00:00 13.2 38 Este 58 Nordeste 0 -- -- 60
2021-02-21 16:00:00 13.3 37 Este 64 Este 0 -- -- 59
2021-02-21 15:00:00 13.7 32 Este 52 Este 0 -- -- 57
2021-02-21 14:00:00 14.5 27 Este 53 Este 0 -- -- 51
2021-02-21 13:00:00 14.8 19 Este 42 Este 0 -- -- 49
2021-02-21 12:00:00 14.9 15 Este 57 Este 0 -- -- 48
2021-02-21 11:00:00 13.8 30 Este 48 Este 0 -- -- 42
2021-02-21 10:00:00 13.5 24 Este 44 Este 0 -- -- 39
2021-02-21 09:00:00 12.4 27 Este 44 Este 0 -- -- 42
2021-02-21 08:00:00 11.5 25 Este 42 Este 0 -- -- 42
2021-02-21 07:00:00 11.3 21 Este 41 Este 0 -- -- 42
2021-02-21 06:00:00 11.1 21 Este 33 Este 0 -- -- 43
2021-02-21 05:00:00 11.4 19 Este 34 Este 0 -- -- 41
2021-02-21 04:00:00 11.5 10 Nordeste 26 Este 0 -- -- 45
2021-02-21 03:00:00 11.3 14 Este 28 Este 0 -- -- 50
2021-02-21 02:00:00 11.5 12 Nordeste 26 Este 0 -- -- 49
2021-02-21 01:00:00 11.4 15 Nordeste 26 Este 0 -- -- 51
2021-02-21 00:00:00 9.9 12 Nordeste 19 Nordeste 0 -- -- 57
2021-02-20 23:00:00 8.5 9 Nordeste 17 Nordeste 0 -- -- 69
2021-02-20 22:00:00 9 6 Nordeste 19 Este 0 -- -- 70
2021-02-20 21:00:00 10.6 9 Nordeste 35 Este 0 -- -- 66
2021-02-20 20:00:00 12 25 Este 39 Este 0 -- -- 62
2021-02-20 19:00:00 13.1 21 Este 31 Este 0 -- -- 60
2021-02-20 18:00:00 14.4 19 Nordeste 33 Nordeste 0 -- -- 58
2021-02-20 17:00:00 16.7 18 Este 30 Nordeste 0 -- -- 50
2021-02-20 16:00:00 17.9 9 Sudeste 24 Sudeste 0 -- -- 42
2021-02-20 15:00:00 17.9 5 Este 22 Este 0 -- -- 42
2021-02-20 14:00:00 18.6 10 Este 22 Este 0 -- -- 43
2021-02-20 13:00:00 18.5 9 Este 19 Este 0 -- -- 40
2021-02-20 12:00:00 17 11 Este 20 Sudeste 0 -- -- 45
2021-02-20 11:00:00 14.2 9 Este 22 Este 0 -- -- 56
2021-02-20 10:00:00 10 15 Este 23 Este 0 -- -- 66
2021-02-20 09:00:00 7.1 16 Nordeste 24 Nordeste 0 -- -- 72
2021-02-20 08:00:00 4.7 19 Nordeste 26 Nordeste 0 -- -- 78
2021-02-20 07:00:00 5.7 14 Nordeste 22 Nordeste 0 -- -- 74
2021-02-20 06:00:00 6.2 14 Nordeste 23 Nordeste 0 -- -- 73
2021-02-20 05:00:00 6.4 19 Nordeste 23 Nordeste 0 -- -- 73
2021-02-20 04:00:00 6.7 17 Nordeste 23 Nordeste 0 -- -- 73
2021-02-20 03:00:00 7.2 12 Nordeste 22 Nordeste 0 -- -- 73
2021-02-20 02:00:00 7.7 18 Nordeste 22 Nordeste 0 -- -- 72
2021-02-20 01:00:00 8.3 13 Nordeste 18 Nordeste 0 -- -- 71
2021-02-20 00:00:00 8.2 12 Nordeste 17 Nordeste 0 -- -- 71
2021-02-19 23:00:00 7.8 12 Nordeste 17 Nordeste 0 -- -- 73
2021-02-19 22:00:00 9.4 13 Nordeste 17 Nordeste 0 -- -- 68
2021-02-19 21:00:00 8.3 10 Nordeste 13 Este 0 -- -- 72
2021-02-19 20:00:00 8.6 9 Nordeste 13 Nordeste 0 -- -- 71
2021-02-19 19:00:00 9.7 6 Nordeste 9 Nordeste 0 -- -- 71
2021-02-19 18:00:00 15.8 0 Calma 17 Sudoeste 0 -- -- 53
2021-02-19 17:00:00 17.1 14 Sudoeste 20 Sudoeste 0 -- -- 49
2021-02-19 16:00:00 18 8 Sudoeste 16 Sudoeste 0 -- -- 46
2021-02-19 15:00:00 17.8 9 Sur 18 Sudoeste 0 -- -- 46
2021-02-19 14:00:00 17 11 Sudoeste 19 Sudoeste 0 -- -- 54
2021-02-19 13:00:00 16.5 12 Sudoeste 18 Sudoeste 0 -- -- 55
2021-02-19 12:00:00 15.2 8 Sudoeste 13 Sudoeste 0 -- -- 64
2021-02-19 11:00:00 13.1 10 Este 15 Este 0 -- -- 63
2021-02-19 10:00:00 8.7 12 Este 17 Este 0 -- -- 77
2021-02-19 09:00:00 5.6 12 Nordeste 17 Nordeste 0 -- -- 85
2021-02-19 08:00:00 5.1 15 Nordeste 20 Nordeste 0 -- -- 84
2021-02-19 07:00:00 5 10 Nordeste 16 Nordeste 0 -- -- 85
2021-02-19 06:00:00 5.7 13 Nordeste 17 Nordeste 0 -- -- 86
2021-02-19 05:00:00 4.7 10 Nordeste 17 Nordeste 0 -- -- 90
2021-02-19 04:00:00 5.8 11 Nordeste 18 Nordeste 0 -- -- 89
2021-02-19 03:00:00 5.4 10 Nordeste 15 Nordeste 0 -- -- 93
2021-02-19 02:00:00 5.4 6 Nordeste 13 Nordeste 0 -- -- 92
2021-02-19 01:00:00 6.7 8 Nordeste 11 Norte 0 -- -- 87
2021-02-19 00:00:00 6.6 7 Nordeste 13 Este 0 -- -- 90
2021-02-18 23:00:00 6.2 6 Nordeste 10 Nordeste 0 -- -- 94
2021-02-18 22:00:00 6.8 6 Nordeste 9 Nordeste 0 -- -- 90
2021-02-18 21:00:00 6.8 5 Nordeste 10 Nordeste 0 -- -- 91
2021-02-18 20:00:00 7.7 6 Nordeste 9 Nordeste 0 -- -- 89
2021-02-18 19:00:00 10.5 4 Nordeste 7 Este 0 -- -- 80
2021-02-18 18:00:00 15.5 4 Sudoeste 11 Sudoeste 0 -- -- 64
2021-02-18 17:00:00 16 9 Sudoeste 16 Sudoeste 0 -- -- 64
2021-02-18 16:00:00 16.5 14 Sudoeste 21 Sudoeste 0 -- -- 62
2021-02-18 15:00:00 18.2 8 Sudoeste 14 Sudoeste 0 -- -- 54
2021-02-18 14:00:00 16.3 7 Sudoeste 16 Sudoeste 0 -- -- 67
2021-02-18 13:00:00 16.2 8 Sudoeste 16 Sudoeste 0 -- -- 66
2021-02-18 12:00:00 16.1 10 Sudoeste 15 Oeste 0 -- -- 69
2021-02-18 11:00:00 14 10 Este 17 Este 0 -- -- 70
2021-02-18 10:00:00 10.7 12 Este 18 Nordeste 0 -- -- 79
2021-02-18 09:00:00 7.6 16 Nordeste 20 Nordeste 0 -- -- 87
2021-02-18 08:00:00 6.3 13 Nordeste 21 Nordeste 0 -- -- 89
2021-02-18 07:00:00 6.8 17 Nordeste 22 Nordeste 0 -- -- 88
2021-02-18 06:00:00 6.7 12 Nordeste 19 Nordeste 0 -- -- 90
2021-02-18 05:00:00 7.4 13 Nordeste 18 Nordeste 0 -- -- 88
2021-02-18 04:00:00 7.3 13 Nordeste 17 Este 0 -- -- 91
2021-02-18 03:00:00 7.5 11 Nordeste 18 Nordeste 0 -- -- 89
2021-02-18 02:00:00 7.6 13 Nordeste 20 Nordeste 0 -- -- 92
2021-02-18 01:00:00 8.7 11 Nordeste 15 Nordeste 0 -- -- 88
2021-02-18 00:00:00 8.6 9 Nordeste 13 Nordeste 0 -- -- 88
2021-02-17 23:00:00 9.3 10 Nordeste 14 Norte 0 -- -- 88
2021-02-17 22:00:00 8.7 9 Nordeste 14 Este 0 -- -- 93
2021-02-17 21:00:00 7.5 5 Nordeste 8 Este 0 -- -- 94
2021-02-17 20:00:00 8.5 5 Nordeste 8 Este 0 -- -- 89
2021-02-17 19:00:00 12 3 Nordeste 8 Sudoeste 0 -- -- 81
2021-02-17 18:00:00 14.1 6 Sudoeste 12 Sudoeste 0 -- -- 72
2021-02-17 17:00:00 15.1 9 Sudoeste 16 Sudoeste 0 -- -- 68
2021-02-17 16:00:00 16.2 8 Sudoeste 16 Sudoeste 0 -- -- 64
2021-02-17 15:00:00 15.9 9 Sudoeste 14 Sudoeste 0 -- -- 67
2021-02-17 14:00:00 14.4 7 Sudoeste 14 Sudoeste 0 -- -- 72
2021-02-17 13:00:00 14.1 8 Sudoeste 13 Sudoeste 0 -- -- 73
2021-02-17 12:00:00 12.8 2 Nordeste 12 Este 0 -- -- 77
2021-02-17 11:00:00 9.9 8 Este 15 Este 0 -- -- 91
2021-02-17 10:00:00 7.4 10 Este 15 Nordeste 0 -- -- 96
2021-02-17 09:00:00 6 7 Nordeste 15 Nordeste 0 -- -- 97
2021-02-17 08:00:00 6 10 Nordeste 13 Nordeste 0 -- -- 96
2021-02-17 07:00:00 6.1 9 Nordeste 12 Nordeste 0 -- -- 97
2021-02-17 06:00:00 6 6 Nordeste 10 Nordeste 0 -- -- 97
2021-02-17 05:00:00 5.8 6 Nordeste 10 Este 0 -- -- 97
2021-02-17 04:00:00 6.2 5 Nordeste 10 Nordeste 0 -- -- 96
2021-02-17 03:00:00 5.9 4 Nordeste 8 Este 0 -- -- 97
2021-02-17 02:00:00 6.6 5 Nordeste 10 Este 0 -- -- 95
2021-02-17 01:00:00 7.3 4 Nordeste 6 Este 0 -- -- 94
2021-02-17 00:00:00 7.4 2 Nordeste 7 Nordeste 0 -- -- 95
2021-02-16 23:00:00 7.5 6 Nordeste 9 Nordeste 0 -- -- 96
2021-02-16 22:00:00 6.9 4 Nordeste 8 Nordeste 0 -- -- 94
2021-02-16 21:00:00 7.7 4 Nordeste 8 Norte 0 -- -- 94
2021-02-16 20:00:00 7.3 5 Nordeste 9 Norte 0 -- -- 93
2021-02-16 19:00:00 8.8 4 Nordeste 10 Sudoeste 0 -- -- 86
2021-02-16 18:00:00 12 10 Sudoeste 18 Sudoeste 0 -- -- 77
2021-02-16 17:00:00 14 11 Sudoeste 20 Sudoeste 0 -- -- 68
2021-02-16 16:00:00 14.3 13 Sudoeste 23 Sudoeste 0 -- -- 67
2021-02-16 15:00:00 13.4 14 Sudoeste 22 Sudoeste 0 -- -- 69
2021-02-16 14:00:00 13.5 14 Sudoeste 21 Sudoeste 0 -- -- 68
2021-02-16 13:00:00 13 8 Sur 18 Sudoeste 0 -- -- 69
2021-02-16 12:00:00 10.7 5 Noroeste 15 Oeste 0 -- -- 74
2021-02-16 11:00:00 9.6 9 Oeste 15 Oeste 0 -- -- 77
2021-02-16 10:00:00 8.7 0 Calma 7 Nordeste 0 -- -- 82
2021-02-16 09:00:00 7.5 3 Nordeste 11 Nordeste 0 -- -- 88
2021-02-16 08:00:00 7.1 7 Nordeste 11 Nordeste 0 -- -- 86
2021-02-16 07:00:00 7.1 6 Nordeste 11 Nordeste 0 -- -- 86
2021-02-16 06:00:00 7.3 6 Nordeste 11 Nordeste 0 -- -- 86
2021-02-16 05:00:00 6.7 2 Nordeste 8 Nordeste 0 -- -- 95
2021-02-16 04:00:00 6.8 4 Nordeste 10 Nordeste 0 -- -- 95
2021-02-16 03:00:00 6.8 5 Nordeste 9 Nordeste 0 -- -- 95
2021-02-16 02:00:00 6.7 6 Nordeste 9 Nordeste 0 -- -- 95
2021-02-16 01:00:00 6.9 7 Nordeste 11 Este 0 -- -- 95
2021-02-16 00:00:00 7.1 8 Nordeste 13 Nordeste 0 -- -- 94
2021-02-15 23:00:00 7.2 5 Nordeste 8 Norte 0 -- -- 94
2021-02-15 22:00:00 7.3 0 Calma 9 Nordeste 0 -- -- 93
2021-02-15 21:00:00 7.5 3 Nordeste 13 Este 0 -- -- 93
2021-02-15 20:00:00 7.8 5 Este 14 Este 0 -- -- 92
2021-02-15 19:00:00 8.1 6 Este 9 Este 0 -- -- 86
2021-02-15 18:00:00 8.6 5 Sudeste 10 Sudeste 0 -- -- 85
2021-02-15 17:00:00 9 5 Sudeste 10 Sudeste 0 -- -- 83
2021-02-15 16:00:00 9.3 4 Sudeste 12 Sudeste 0 -- -- 82
2021-02-15 15:00:00 9.2 3 Sudeste 8 Sudeste 0 -- -- 81
2021-02-15 14:00:00 9.3 2 Sur 6 Este 0 -- -- 83
2021-02-15 13:00:00 8.6 3 Nordeste 12 Nordeste 0 -- -- 81
2021-02-15 12:00:00 7.4 8 Este 13 Este 0 -- -- 89
2021-02-15 11:00:00 6.3 9 Este 12 Este 0 -- -- 93
2021-02-15 10:00:00 5.5 6 Nordeste 9 Nordeste 0 -- -- 96
2021-02-15 09:00:00 4.7 7 Nordeste 10 Este 0 -- -- 97
2021-02-15 08:00:00 4.3 7 Nordeste 13 Nordeste 0 -- -- 97
2021-02-15 07:00:00 4.2 9 Nordeste 13 Nordeste 0 -- -- 97
2021-02-15 06:00:00 4 8 Nordeste 12 Nordeste 0 -- -- 97
2021-02-15 05:00:00 4.1 8 Nordeste 13 Nordeste 0 -- -- 97
2021-02-15 04:00:00 4.3 9 Nordeste 14 Este 0 -- -- 97
2021-02-15 03:00:00 4.2 9 Nordeste 13 Nordeste 0 -- -- 97
2021-02-15 02:00:00 4.2 8 Nordeste 11 Nordeste 0 -- -- 97
2021-02-15 01:00:00 4.3 7 Nordeste 13 Nordeste 0 -- -- 97
2021-02-15 00:00:00 4.6 7 Nordeste 13 Este 0 -- -- 96
2021-02-14 23:00:00 4.5 9 Este 13 Este 0 -- -- 97
2021-02-14 22:00:00 4.7 6 Nordeste 24 Nordeste 0 -- -- 96
2021-02-14 21:00:00 4.7 17 Este 24 Nordeste 0 -- -- 96
2021-02-14 20:00:00 4.8 12 Nordeste 27 Nordeste 0 -- -- 97
2021-02-14 19:00:00 5 18 Este 30 Este 0 -- -- 97
2021-02-14 18:00:00 5.3 17 Este 26 Este 0 -- -- 97
2021-02-14 17:00:00 5.9 8 Este 20 Este 0 -- -- 96
2021-02-14 16:00:00 6.5 11 Nordeste 21 Nordeste 0 -- -- 95
2021-02-14 15:00:00 6.6 11 Nordeste 27 Este 0 -- -- 96
2021-02-14 14:00:00 6.8 13 Este 23 Este 0 -- -- 96
2021-02-14 13:00:00 6.9 18 Este 26 Nordeste 0 -- -- 96
2021-02-14 12:00:00 6.7 15 Este 22 Nordeste 0 -- -- 96
2021-02-14 11:00:00 6.7 13 Este 24 Este 0 -- -- 97
2021-02-14 10:00:00 7 10 Nordeste 19 Nordeste 0 -- -- 96
2021-02-14 09:00:00 6.7 8 Este 16 Este 0 -- -- 95
2021-02-14 08:00:00 6.8 5 Nordeste 14 Nordeste 0 -- -- 94
2021-02-14 07:00:00 6.5 9 Nordeste 15 Nordeste 0 -- -- 96
2021-02-14 06:00:00 6.5 9 Nordeste 13 Este 0 -- -- 98
2021-02-14 05:00:00 6 6 Nordeste 10 Nordeste 0 -- -- 98
2021-02-14 04:00:00 3.9 8 Nordeste 13 Nordeste 0 -- -- 97
2021-02-14 03:00:00 5 10 Este 13 Este 0 -- -- 94
2021-02-14 02:00:00 7.2 9 Nordeste 16 Este 0 -- -- 92
2021-02-14 01:00:00 7.1 8 Nordeste 13 Nordeste 0 -- -- 95
2021-02-14 00:00:00 5.9 9 Nordeste 13 Este 0 -- -- 97
2021-02-13 23:00:00 6.2 9 Nordeste 16 Nordeste 0 -- -- 97
2021-02-13 22:00:00 6.3 12 Nordeste 15 Nordeste 0 -- -- 97
2021-02-13 21:00:00 5.7 6 Nordeste 12 Nordeste 0 -- -- 96
2021-02-13 20:00:00 7.2 9 Nordeste 13 Nordeste 0 -- -- 95
2021-02-13 19:00:00 7.8 5 Nordeste 6 Este 0 -- -- 91
2021-02-13 18:00:00 10.2 0 Calma 7 Sur 0 -- -- 85
2021-02-13 17:00:00 10.8 5 Sur 12 Sudoeste 0 -- -- 83
2021-02-13 16:00:00 11.3 6 Sudoeste 17 Sudoeste 0 -- -- 81
2021-02-13 15:00:00 11.6 10 Sur 14 Sudoeste 0 -- -- 80
2021-02-13 14:00:00 10.1 7 Sudoeste 14 Sur 0 -- -- 84
2021-02-13 13:00:00 10.2 12 Sudoeste 20 Sudoeste 0 -- -- 84
2021-02-13 08:00:00 3.7 10 Nordeste 20 Este 0 -- -- 94
2021-02-13 07:00:00 3.3 9 Norte 17 Nordeste 0 -- -- 97
2021-02-13 06:00:00 3.1 10 Nordeste 14 Este 0 -- -- 96
2021-02-13 05:00:00 3.2 5 Nordeste 12 Este 0 -- -- 91
2021-02-13 04:00:00 5.7 9 Nordeste 22 Nordeste 0 -- -- 84
2021-02-13 03:00:00 6.3 11 Norte 18 Norte 0 -- -- 83
2021-02-13 02:00:00 5.1 5 Nordeste 16 Este 0 -- -- 89
2021-02-13 01:00:00 8.2 7 Este 23 Nordeste 0 -- -- 79
2021-02-13 00:00:00 7.5 5 Nordeste 16 Nordeste 0 -- -- 85
2021-02-12 23:00:00 7.9 5 Este 13 Norte 0 -- -- 90
2021-02-12 22:00:00 5.6 5 Nordeste 12 Este 0 -- -- 97
2021-02-12 21:00:00 7 8 Norte 13 Norte 0 -- -- 98
2021-02-12 20:00:00 7 6 Nordeste 9 Este 0 -- -- 97
2021-02-12 19:00:00 9.1 2 Oeste 10 Sudoeste 0 -- -- 96
2021-02-12 18:00:00 10.1 3 Sudoeste 20 Oeste 0 -- -- 94
2021-02-12 17:00:00 9.9 8 Oeste 15 Oeste 0 -- -- 95
2021-02-12 16:00:00 9.3 9 Oeste 18 Sudoeste 0 -- -- 98
2021-02-12 15:00:00 8.9 9 Sudoeste 18 Sudoeste 0 -- -- 96
2021-02-12 14:00:00 10.2 11 Sudoeste 17 Sudoeste 0 -- -- 93
2021-02-12 13:00:00 11.3 8 Sudoeste 13 Sudoeste 0.4 -- -- 91
2021-02-12 12:00:00 10.9 7 Sudoeste 12 Sudoeste 0 -- -- 88
2021-02-12 11:00:00 10.7 0 Calma 13 Este 0 -- -- 82
2021-02-12 10:00:00 9.6 9 Este 13 Este 0 -- -- 82
2021-02-12 09:00:00 8.3 9 Nordeste 19 Nordeste 0 -- -- 85
2021-02-12 08:00:00 8.1 10 Nordeste 15 Nordeste 0 -- -- 85
2021-02-12 07:00:00 8.2 8 Nordeste 15 Nordeste 0 -- -- 85
2021-02-12 06:00:00 7.3 7 Nordeste 15 Nordeste 0 -- -- 89
2021-02-12 05:00:00 6.6 12 Nordeste 16 Este 0 -- -- 90
2021-02-12 04:00:00 7.1 9 Nordeste 17 Nordeste 0 -- -- 90
2021-02-12 03:00:00 7.1 10 Nordeste 14 Este 0 -- -- 92
2021-02-12 02:00:00 6.9 11 Nordeste 15 Nordeste 0 -- -- 90
2021-02-12 01:00:00 6.6 9 Nordeste 12 Este 0 -- -- 94
2021-02-12 00:00:00 8 8 Nordeste 16 Nordeste 0 -- -- 88
2021-02-11 23:00:00 6.8 5 Nordeste 9 Este 0 -- -- 93
2021-02-11 22:00:00 7.7 5 Nordeste 10 Este 0 -- -- 88
2021-02-11 21:00:00 8.9 5 Nordeste 12 Oeste 0 -- -- 83
2021-02-11 20:00:00 12.2 7 Sudoeste 16 Oeste 0 -- -- 73
2021-02-11 19:00:00 12 7 Oeste 19 Sudoeste 0 -- -- 72
2021-02-11 18:00:00 13.3 10 Sudoeste 30 Oeste 0 -- -- 66
2021-02-11 17:00:00 15 15 Oeste 31 Oeste 0 -- -- 60
2021-02-11 16:00:00 16 10 Sudoeste 24 Sudoeste 0 -- -- 56
2021-02-11 15:00:00 14.5 15 Sudoeste 26 Sudoeste 0 -- -- 65
2021-02-11 14:00:00 14.3 11 Sudoeste 25 Sudoeste 0 -- -- 62
2021-02-11 13:00:00 12.5 10 Sudoeste 17 Sur 0 -- -- 66
2021-02-11 12:00:00 11.1 8 Sudoeste 14 Sudoeste 0 -- -- 69
2021-02-11 11:00:00 9.5 4 Sudoeste 13 Este 0 -- -- 73
2021-02-11 10:00:00 6.8 8 Este 15 Nordeste 0 -- -- 77
2021-02-11 09:00:00 3.1 9 Nordeste 14 Nordeste 0 -- -- 89
2021-02-11 08:00:00 1.4 8 Nordeste 15 Este 0 -- -- 92
2021-02-11 07:00:00 1.3 9 Nordeste 13 Este 0 -- -- 94
2021-02-11 06:00:00 1 8 Nordeste 12 Este 0 -- -- 92
2021-02-11 05:00:00 1.1 4 Nordeste 15 Este 0 -- -- 90
2021-02-11 04:00:00 2.3 13 Este 16 Este 0 -- -- 89
2021-02-11 03:00:00 0.6 7 Nordeste 13 Este 0 -- -- 93
2021-02-11 02:00:00 1.3 5 Nordeste 11 Este 0 -- -- 90
2021-02-11 01:00:00 2.9 5 Nordeste 10 Norte 0 -- -- 88
2021-02-11 00:00:00 5 5 Nordeste 14 Norte 0 -- -- 79
2021-02-10 23:00:00 6.4 6 Nordeste 18 Norte 0 -- -- 75
2021-02-10 22:00:00 6.5 7 Nordeste 26 Norte 0 -- -- 75
2021-02-10 21:00:00 7.9 6 Este 34 Noroeste 0 -- -- 69
2021-02-10 20:00:00 8.2 9 Oeste 30 Noroeste 0 -- -- 69
2021-02-10 19:00:00 8.6 12 Sudoeste 36 Noroeste 0 -- -- 69
2021-02-10 18:00:00 10.6 15 Oeste 42 Oeste 0 -- -- 62
2021-02-10 17:00:00 13 14 Oeste 30 Oeste 0 -- -- 55
2021-02-10 16:00:00 12.1 14 Oeste 30 Sudoeste 0 -- -- 60
2021-02-10 15:00:00 11.9 15 Oeste 40 Oeste 0 -- -- 64
2021-02-10 14:00:00 10.5 15 Oeste 27 Oeste 0 -- -- 76
2021-02-10 13:00:00 8.2 10 Sudoeste 27 Sudoeste 0 -- -- 86
2021-02-10 12:00:00 8.1 10 Oeste 23 Sur 0 -- -- 83
2021-02-10 11:00:00 6.2 7 Norte 17 Noroeste 0.4 -- -- 90
2021-02-10 10:00:00 5.1 4 Noroeste 12 Noroeste 1.4 -- -- 98
2021-02-10 09:00:00 4.7 0 Calma 5 Sudoeste 0 -- -- 98
2021-02-10 08:00:00 4.5 3 Nordeste 6 Nordeste 0 -- -- 96
2021-02-10 07:00:00 5.1 7 Este 13 Nordeste 0 -- -- 92
2021-02-10 06:00:00 4.7 4 Nordeste 9 Nordeste 0 -- -- 96
2021-02-10 05:00:00 4.5 5 Nordeste 8 Norte 0 -- -- 96
2021-02-10 04:00:00 4.7 3 Nordeste 7 Norte 0 -- -- 97
2021-02-10 03:00:00 4.8 3 Nordeste 8 Norte 0 -- -- 97
2021-02-10 02:00:00 5 0 Calma 17 Nordeste 0 -- -- 95
2021-02-10 01:00:00 5.3 7 Nordeste 18 Norte 0 -- -- 99
2021-02-10 00:00:00 5.5 0 Calma 7 Nordeste 0 -- -- 98
2021-02-09 23:00:00 5.6 0 Calma 8 Nordeste 0 -- -- 98
2021-02-09 22:00:00 5.5 7 Nordeste 11 Este 0 -- -- 98
2021-02-09 21:00:00 6.1 5 Este 11 Norte 0 -- -- 97
2021-02-09 20:00:00 6.1 8 Nordeste 16 Este 0 -- -- 97
2021-02-09 19:00:00 6.1 13 Este 19 Este 0.2 -- -- 97
2021-02-09 18:00:00 6.4 10 Nordeste 14 Nordeste 0 -- -- 95
2021-02-09 17:00:00 6.8 10 Nordeste 17 Nordeste 0 -- -- 94
2021-02-09 16:00:00 7 9 Nordeste 21 Nordeste 0 -- -- 94
2021-02-09 15:00:00 6.5 10 Nordeste 18 Nordeste 0 -- -- 94
2021-02-09 14:00:00 6.9 10 Este 13 Este 0.2 -- -- 91
2021-02-09 13:00:00 7.2 3 Norte 9 Oeste 0.2 -- -- 87
2021-02-09 12:00:00 7 7 Sudoeste 13 Sudoeste 0 -- -- 87
2021-02-09 11:00:00 7.2 6 Este 16 Sudoeste 0 -- -- 82
2021-02-09 10:00:00 7.1 0 Calma 5 Nordeste 0 -- -- 85
2021-02-09 09:00:00 5 0 Calma 12 Sudoeste 0 -- -- 87
2021-02-09 08:00:00 5.3 3 Norte 9 Noroeste 0 -- -- 81
2021-02-09 07:00:00 5 2 Nordeste 13 Noroeste 0 -- -- 81
2021-02-09 06:00:00 6 5 Norte 13 Norte 0 -- -- 76
2021-02-09 05:00:00 6.3 5 Norte 16 Norte 0 -- -- 75
2021-02-09 04:00:00 5.9 5 Noroeste 27 Oeste 0 -- -- 80
2021-02-09 03:00:00 6.4 12 Oeste 26 Oeste 0 -- -- 81
2021-02-09 02:00:00 6 12 Oeste 22 Oeste 0 -- -- 83
2021-02-09 01:00:00 5.3 8 Oeste 15 Oeste 0 -- -- 84
2021-02-09 00:00:00 6 5 Oeste 19 Oeste 0 -- -- 82
2021-02-08 23:00:00 6.8 9 Oeste 25 Oeste 0 -- -- 81
2021-02-08 22:00:00 7 9 Oeste 21 Oeste 0 -- -- 80
2021-02-08 21:00:00 7.1 9 Oeste 19 Oeste 0 -- -- 81
2021-02-08 20:00:00 6.7 6 Oeste 13 Oeste 0 -- -- 85
2021-02-08 19:00:00 6.9 3 Sur 19 Oeste 0 -- -- 86
2021-02-08 18:00:00 8.9 11 Oeste 23 Oeste 0 -- -- 74
2021-02-08 17:00:00 11 14 Oeste 33 Sudoeste 0 -- -- 68
2021-02-08 16:00:00 10 10 Oeste 23 Oeste 0 -- -- 78
2021-02-08 15:00:00 8.1 8 Oeste 13 Sudoeste 0 -- -- 90
2021-02-08 14:00:00 6.1 4 Sudoeste 12 Oeste 0 -- -- 93
2021-02-08 13:00:00 5.2 5 Oeste 9 Sudoeste 0 -- -- 94
2021-02-08 12:00:00 4.8 6 Sudoeste 8 Sudoeste 0.2 -- -- 92
2021-02-08 11:00:00 5.1 5 Sudoeste 13 Sudoeste 0.2 -- -- 87
2021-02-08 10:00:00 7.3 4 Oeste 9 Oeste 0 -- -- 82
2021-02-08 09:00:00 5.4 2 Sudoeste 4 Sudoeste 0 -- -- 87
2021-02-08 08:00:00 6.4 0 Calma 10 Norte 0 -- -- 80
2021-02-08 07:00:00 5.3 5 Nordeste 12 Nordeste 0 -- -- 82
2021-02-08 06:00:00 5.2 8 Nordeste 15 Noroeste 0 -- -- 79
2021-02-08 05:00:00 5.1 5 Nordeste 10 Nordeste 0 -- -- 79
2021-02-08 04:00:00 5.2 4 Este 12 Noroeste 0 -- -- 77
2021-02-08 03:00:00 5.8 3 Noroeste 16 Noroeste 0 -- -- 73
2021-02-08 02:00:00 6.1 6 Norte 21 Noroeste 0 -- -- 70
2021-02-08 01:00:00 6 9 Sudoeste 19 Noroeste 0 -- -- 69
2021-02-08 00:00:00 6.7 8 Oeste 21 Oeste 0 -- -- 64
2021-02-07 23:00:00 6.7 11 Oeste 24 Oeste 0 -- -- 65
2021-02-07 22:00:00 6.7 14 Oeste 25 Oeste 0 -- -- 68
2021-02-07 21:00:00 6.4 10 Sudoeste 15 Oeste 0 -- -- 73
2021-02-07 20:00:00 6.9 10 Oeste 18 Oeste 0 -- -- 72
2021-02-07 19:00:00 7.2 7 Sudoeste 18 Sur 0 -- -- 73
2021-02-07 18:00:00 8.5 11 Sudoeste 29 Sudoeste 0 -- -- 68
2021-02-07 17:00:00 10.1 19 Sudoeste 36 Sudoeste 0 -- -- 60
2021-02-07 16:00:00 11 13 Sudoeste 26 Oeste 0 -- -- 56
2021-02-07 15:00:00 11.3 21 Sudoeste 31 Sudoeste 0 -- -- 58
2021-02-07 14:00:00 10.8 19 Sudoeste 30 Sudoeste 0 -- -- 63
2021-02-07 13:00:00 8.7 14 Sudoeste 20 Sudoeste 0 -- -- 78
2021-02-07 12:00:00 5 9 Sudoeste 13 Sudoeste 0 -- -- 92
2021-02-07 11:00:00 4.1 9 Sudoeste 12 Sudoeste 0 -- -- 96
2021-02-07 10:00:00 3.9 4 Sudoeste 9 Sur 0 -- -- 97
2021-02-07 09:00:00 3.6 2 Oeste 10 Sur 0 -- -- 96
2021-02-07 08:00:00 3.5 8 Sur 14 Sudoeste 0 -- -- 97
2021-02-07 07:00:00 5.1 4 Sudeste 12 Sudoeste 0 -- -- 99
2021-02-07 06:00:00 4.9 7 Sudoeste 12 Sudoeste 0.2 -- -- 98
2021-02-07 05:00:00 5.4 4 Oeste 6 Oeste 0.2 -- -- 98
2021-02-07 04:00:00 5.3 0 Calma 9 Sudoeste 0 -- -- 97
2021-02-07 03:00:00 5.5 5 Sudoeste 10 Sur 0 -- -- 97
2021-02-07 02:00:00 5.8 8 Sur 12 Sudoeste 0 -- -- 97
2021-02-07 01:00:00 6.2 8 Sudoeste 16 Sudoeste 0 -- -- 97
2021-02-07 00:00:00 6.6 12 Sudoeste 18 Sudoeste 0 -- -- 96
2021-02-06 23:00:00 7.2 13 Sudoeste 20 Sudoeste 0 -- -- 95
2021-02-06 22:00:00 7.6 9 Sur 18 Sudoeste 0 -- -- 92
2021-02-06 21:00:00 8.7 7 Oeste 21 Sudoeste 0 -- -- 85
2021-02-06 20:00:00 10.6 5 Norte 14 Norte 0 -- -- 71
2021-02-06 19:00:00 9.4 0 Calma 12 Sudoeste 0 -- -- 77
2021-02-06 18:00:00 13 6 Oeste 19 Sudoeste 0 -- -- 63
2021-02-06 17:00:00 15.5 10 Sudoeste 23 Sudoeste 0 -- -- 56
2021-02-06 16:00:00 15.5 12 Sudoeste 27 Sudoeste 0 -- -- 56
2021-02-06 15:00:00 14.3 14 Sudoeste 23 Sudoeste 0 -- -- 65
2021-02-06 14:00:00 14.4 10 Sudoeste 22 Sudoeste 0 -- -- 68
2021-02-06 13:00:00 15.2 9 Sudoeste 17 Sudoeste 0 -- -- 66
2021-02-06 12:00:00 13.9 14 Sudoeste 20 Sudoeste 0 -- -- 70
2021-02-06 11:00:00 12.6 6 Sudoeste 12 Sudoeste 0 -- -- 70
2021-02-06 10:00:00 11.5 3 Este 9 Este 0 -- -- 72
2021-02-06 09:00:00 9.1 4 Norte 6 Nordeste 0 -- -- 79
2021-02-06 08:00:00 10.3 5 Sudoeste 21 Sudoeste 0 -- -- 71
2021-02-06 07:00:00 13.2 11 Sur 25 Sur 0 -- -- 57
2021-02-06 06:00:00 15.1 18 Este 42 Nordeste 0 -- -- 47
2021-02-06 05:00:00 15.1 19 Este 29 Este 0 -- -- 46
2021-02-06 04:00:00 15.4 16 Este 29 Nordeste 0 -- -- 43
2021-02-06 03:00:00 16.4 14 Este 31 Este 0 -- -- 38
2021-02-06 02:00:00 16.1 18 Nordeste 43 Este 0 -- -- 39
2021-02-06 01:00:00 16.3 18 Nordeste 36 Este 0 -- -- 37
2021-02-06 00:00:00 15.6 12 Nordeste 35 Este 0 -- -- 40
2021-02-05 23:00:00 15.6 15 Nordeste 30 Este 0 -- -- 41
2021-02-05 22:00:00 15.5 19 Este 37 Este 0 -- -- 43
2021-02-05 21:00:00 15.6 22 Este 38 Este 0 -- -- 45
2021-02-05 20:00:00 15.5 19 Este 31 Este 0 -- -- 44
2021-02-05 19:00:00 15.2 15 Nordeste 30 Este 0 -- -- 47
2021-02-05 18:00:00 15.4 15 Nordeste 34 Este 0 -- -- 48
2021-02-05 17:00:00 15.8 19 Nordeste 33 Este 0 -- -- 50
2021-02-05 16:00:00 16.4 20 Nordeste 33 Este 0 -- -- 50
2021-02-05 15:00:00 16.7 17 Nordeste 29 Este 0 -- -- 51
2021-02-05 14:00:00 17.5 9 Este 32 Este 0 -- -- 48
2021-02-05 13:00:00 17.2 15 Este 42 Este 0 -- -- 46
2021-02-05 12:00:00 16.4 23 Este 37 Nordeste 0 -- -- 47
2021-02-05 11:00:00 15.4 22 Este 32 Este 0 -- -- 51
2021-02-05 10:00:00 13 9 Nordeste 19 Nordeste 0 -- -- 61
2021-02-05 09:00:00 11 14 Nordeste 24 Nordeste 0 -- -- 66
2021-02-05 08:00:00 9.3 8 Nordeste 17 Este 0 -- -- 76
2021-02-05 07:00:00 9.3 9 Nordeste 12 Sudeste 0 -- -- 77
2021-02-05 06:00:00 9.3 6 Este 15 Nordeste 0 -- -- 76
2021-02-05 05:00:00 10.5 10 Nordeste 18 Nordeste 0 -- -- 71
2021-02-05 04:00:00 10.4 15 Nordeste 20 Nordeste 0 -- -- 72
2021-02-05 03:00:00 10 12 Nordeste 17 Nordeste 0 -- -- 74
2021-02-05 02:00:00 10.2 10 Nordeste 22 Nordeste 0 -- -- 74
2021-02-05 01:00:00 10.3 12 Nordeste 15 Nordeste 0 -- -- 75
2021-02-05 00:00:00 11.2 10 Nordeste 14 Nordeste 0 -- -- 72
2021-02-04 23:00:00 11.4 6 Nordeste 12 Nordeste 0 -- -- 72
2021-02-04 22:00:00 12.6 10 Nordeste 28 Nordeste 0 -- -- 69
2021-02-04 21:00:00 13.4 19 Nordeste 31 Este 0 -- -- 66
2021-02-04 20:00:00 13.8 18 Este 30 Este 0 -- -- 65
2021-02-04 19:00:00 14.5 17 Este 28 Este 0 -- -- 60
2021-02-04 18:00:00 15.3 9 Nordeste 26 Nordeste 0 -- -- 58
2021-02-04 17:00:00 16.5 10 Nordeste 26 Nordeste 0 -- -- 57
2021-02-04 16:00:00 16.7 15 Este 26 Este 0 -- -- 57
2021-02-04 15:00:00 17.1 12 Este 21 Este 0 -- -- 52
2021-02-04 14:00:00 17.5 9 Este 27 Este 0 -- -- 55
2021-02-04 13:00:00 15.7 9 Este 22 Este 0 -- -- 62
2021-02-04 12:00:00 14.8 15 Este 22 Este 0 -- -- 63
2021-02-04 11:00:00 13.7 14 Este 21 Este 0 -- -- 67
2021-02-04 10:00:00 10.9 13 Este 21 Nordeste 0 -- -- 80
2021-02-04 09:00:00 8.1 17 Nordeste 22 Nordeste 0 -- -- 86
2021-02-04 08:00:00 7.3 16 Nordeste 21 Nordeste 0 -- -- 88
2021-02-04 07:00:00 7.1 13 Nordeste 19 Nordeste 0 -- -- 88
2021-02-04 06:00:00 7.8 12 Nordeste 18 Nordeste 0 -- -- 86
2021-02-04 05:00:00 8.4 11 Nordeste 16 Nordeste 0 -- -- 84
2021-02-04 04:00:00 8.7 10 Nordeste 14 Nordeste 0 -- -- 83
2021-02-04 03:00:00 9.4 8 Nordeste 14 Nordeste 0 -- -- 83
2021-02-04 02:00:00 9.6 9 Nordeste 13 Nordeste 0 -- -- 82
2021-02-04 01:00:00 10.2 11 Nordeste 15 Nordeste 0 -- -- 80
2021-02-04 00:00:00 9.9 8 Nordeste 15 Este 0 -- -- 81
2021-02-03 23:00:00 9.3 4 Nordeste 7 Nordeste 0 -- -- 83
2021-02-03 22:00:00 10.5 4 Nordeste 15 Este 0 -- -- 77
2021-02-03 21:00:00 11.5 10 Nordeste 16 Nordeste 0 -- -- 73
2021-02-03 20:00:00 10.9 8 Este 13 Nordeste 0 -- -- 75
2021-02-03 19:00:00 12.2 7 Nordeste 12 Norte 0 -- -- 70
2021-02-03 18:00:00 14.4 0 Calma 14 Sur 0 -- -- 63
2021-02-03 17:00:00 15.5 10 Sudoeste 28 Oeste 0 -- -- 59
2021-02-03 16:00:00 17.8 10 Oeste 25 Oeste 0 -- -- 52
2021-02-03 15:00:00 18.1 14 Oeste 25 Oeste 0 -- -- 52
2021-02-03 14:00:00 17.5 12 Oeste 26 Oeste 0 -- -- 52
2021-02-03 13:00:00 17.1 13 Oeste 25 Oeste 0 -- -- 55
2021-02-03 12:00:00 15.7 12 Oeste 22 Oeste 0 -- -- 59
2021-02-03 11:00:00 15.1 12 Oeste 21 Oeste 0 -- -- 59
2021-02-03 10:00:00 12.9 6 Noroeste 15 Noroeste 0 -- -- 66
2021-02-03 09:00:00 9.4 3 Norte 10 Noroeste 0 -- -- 78
2021-02-03 08:00:00 8.6 4 Norte 11 Norte 0 -- -- 79
2021-02-03 07:00:00 8.5 4 Nordeste 11 Norte 0 -- -- 80
2021-02-03 06:00:00 9.3 5 Nordeste 13 Norte 0 -- -- 76
2021-02-03 05:00:00 10.8 8 Norte 24 Nordeste 0 -- -- 70
2021-02-03 04:00:00 11.1 6 Norte 18 Norte 0 -- -- 70
2021-02-03 03:00:00 11.3 9 Norte 17 Norte 0 -- -- 72
2021-02-03 02:00:00 10.5 3 Sudeste 13 Nordeste 0 -- -- 78
2021-02-03 01:00:00 6.4 6 Este 10 Este 0 -- -- 92
2021-02-03 00:00:00 7.1 7 Este 13 Este 0 -- -- 89
2021-02-02 23:00:00 7.2 7 Nordeste 13 Este 0 -- -- 89
2021-02-02 22:00:00 8 4 Nordeste 12 Nordeste 0 -- -- 87
2021-02-02 21:00:00 8.5 7 Este 11 Este 0 -- -- 85
2021-02-02 20:00:00 10.9 5 Nordeste 13 Oeste 0 -- -- 77
2021-02-02 19:00:00 13.4 8 Oeste 16 Oeste 0 -- -- 69
2021-02-02 18:00:00 14.9 7 Sudoeste 23 Sudoeste 0 -- -- 65
2021-02-02 17:00:00 16.8 13 Sudoeste 26 Sudoeste 0 -- -- 59
2021-02-02 16:00:00 17.5 13 Oeste 32 Oeste 0 -- -- 58
2021-02-02 15:00:00 17 11 Oeste 31 Noroeste 0 -- -- 58
2021-02-02 14:00:00 16.6 21 Oeste 39 Oeste 0 -- -- 59
2021-02-02 13:00:00 16 12 Oeste 26 Noroeste 0 -- -- 63
2021-02-02 12:00:00 14.9 12 Oeste 23 Oeste 0 -- -- 66
2021-02-02 11:00:00 12.8 9 Sudoeste 15 Sudoeste 0 -- -- 75
2021-02-02 10:00:00 9 6 Este 11 Este 0 -- -- 88
2021-02-02 09:00:00 4.8 7 Nordeste 11 Este 0 -- -- 94
2021-02-02 08:00:00 5.6 6 Nordeste 13 Este 0 -- -- 92
2021-02-02 07:00:00 6.7 6 Nordeste 13 Norte 0 -- -- 89
2021-02-02 06:00:00 8.4 7 Este 18 Nordeste 0 -- -- 83
2021-02-02 05:00:00 10.1 6 Sur 16 Nordeste 0 -- -- 78
2021-02-02 04:00:00 9.5 3 Noroeste 24 Noroeste 0 -- -- 78
2021-02-02 03:00:00 11 8 Noroeste 24 Noroeste 0 -- -- 70
2021-02-02 02:00:00 10.8 9 Oeste 18 Noroeste 0 -- -- 67
2021-02-02 01:00:00 11.5 7 Oeste 21 Norte 0 -- -- 61
2021-02-02 00:00:00 11.9 6 Norte 31 Oeste 0 -- -- 59
2021-02-01 23:00:00 12.1 9 Noroeste 29 Norte 0 -- -- 60
2021-02-01 22:00:00 11.6 6 Oeste 21 Norte 0 -- -- 66
2021-02-01 21:00:00 11.8 8 Nordeste 19 Noroeste 0 -- -- 70
2021-02-01 20:00:00 11.6 7 Noroeste 21 Oeste 0 -- -- 72
2021-02-01 19:00:00 11.9 13 Oeste 42 Oeste 0 -- -- 71
2021-02-01 18:00:00 13.1 19 Oeste 58 Noroeste 0 -- -- 65
2021-02-01 17:00:00 14.3 26 Oeste 59 Oeste 0 -- -- 62
2021-02-01 16:00:00 15.5 31 Oeste 58 Oeste 0 -- -- 55
2021-02-01 15:00:00 16.1 24 Oeste 53 Oeste 0 -- -- 49
2021-02-01 14:00:00 17 23 Oeste 47 Noroeste 0 -- -- 45
2021-02-01 13:00:00 16.2 15 Oeste 57 Oeste 0 -- -- 49
2021-02-01 12:00:00 14.6 22 Oeste 45 Oeste 0 -- -- 56
2021-02-01 11:00:00 13.1 18 Oeste 38 Oeste 0 -- -- 63
2021-02-01 10:00:00 11.6 14 Oeste 37 Oeste 0 -- -- 66
2021-02-01 09:00:00 9.3 15 Oeste 35 Oeste 0 -- -- 73
2021-02-01 08:00:00 9.1 12 Oeste 40 Oeste 0 -- -- 72
2021-02-01 07:00:00 9.5 19 Oeste 34 Noroeste 0 -- -- 70
2021-02-01 06:00:00 10.1 15 Oeste 33 Oeste 0 -- -- 67
2021-02-01 05:00:00 10.5 13 Oeste 39 Oeste 0 -- -- 67
2021-02-01 04:00:00 10.6 10 Oeste 36 Oeste 0 -- -- 69
2021-02-01 03:00:00 11.1 10 Sudoeste 37 Oeste 0 -- -- 67
2021-02-01 02:00:00 10.6 10 Oeste 42 Oeste 0 -- -- 76
2021-02-01 01:00:00 -- 11 Oeste 28 Oeste 0 -- -- --
2021-02-01 00:00:00 11.2 13 Oeste 29 Oeste 0 -- -- 75
2021-01-31 23:00:00 11 9 Oeste 21 Oeste 0 -- -- 71
2021-01-31 22:00:00 11.4 8 Oeste 40 Oeste 0 -- -- 67
2021-01-31 21:00:00 10.3 18 Oeste 40 Oeste 0 -- -- 77
2021-01-31 20:00:00 10.2 7 Oeste 23 Sudoeste 0 -- -- 77
2021-01-31 19:00:00 10.6 7 Sudoeste 20 Oeste 0 -- -- 78
2021-01-31 18:00:00 11.7 7 Oeste 39 Sudoeste 0 -- -- 74
2021-01-31 17:00:00 13.6 14 Oeste 40 Oeste 0 -- -- 68
2021-01-31 16:00:00 14.8 10 Oeste 31 Noroeste 0 -- -- 59
2021-01-31 15:00:00 12.6 18 Oeste 39 Oeste 0 -- -- 63
2021-01-31 14:00:00 13.7 22 Oeste 51 Oeste 0 -- -- 59
2021-01-31 13:00:00 13.7 20 Oeste 44 Oeste 0 -- -- 61
2021-01-31 12:00:00 12.2 22 Oeste 47 Oeste 0 -- -- 64
2021-01-31 11:00:00 10 24 Oeste 45 Oeste 0 -- -- 72
2021-01-31 10:00:00 8.7 13 Oeste 40 Oeste 0 -- -- 75
2021-01-31 09:00:00 6 11 Oeste 41 Oeste 0 -- -- 84
2021-01-31 08:00:00 5.9 14 Oeste 46 Noroeste 0 -- -- 82
2021-01-31 07:00:00 6 15 Oeste 46 Oeste 0 -- -- 81
2021-01-31 06:00:00 5.8 16 Oeste 32 Oeste 0 -- -- 81
2021-01-31 05:00:00 5.6 8 Oeste 28 Oeste 0 -- -- 82
2021-01-31 04:00:00 5.8 11 Oeste 25 Oeste 0 -- -- 82
2021-01-31 03:00:00 5.7 5 Norte 20 Norte 0 -- -- 82
2021-01-31 02:00:00 6 6 Oeste 32 Oeste 0 -- -- 79
2021-01-31 01:00:00 7.7 11 Oeste 32 Oeste 0 -- -- 67
2021-01-31 00:00:00 7.5 16 Oeste 27 Oeste 0 -- -- 65